createdAt,value
2023-02-28T00:02:51.115Z,2.63
2023-02-28T00:05:52.463Z,2.58
2023-02-28T00:08:53.902Z,2.08
2023-02-28T00:11:55.209Z,2.25
2023-02-28T00:14:56.523Z,1.98
2023-02-28T00:17:57.996Z,2.30
2023-02-28T00:21:00.074Z,1.27
2023-02-28T00:24:01.374Z,1.50
2023-02-28T00:27:02.658Z,1.15
2023-02-28T00:30:04.831Z,3.13
2023-02-28T00:33:06.142Z,2.90
2023-02-28T00:36:08.729Z,1.80
2023-02-28T00:39:10.105Z,2.58
2023-02-28T00:42:11.371Z,2.70
2023-02-28T00:45:12.684Z,1.30
2023-02-28T00:48:13.988Z,1.95
2023-02-28T00:51:15.302Z,1.90
2023-02-28T00:54:17.012Z,2.17
2023-02-28T00:57:18.326Z,2.53
2023-02-28T01:00:19.722Z,1.83
2023-02-28T01:03:21.329Z,2.45
2023-02-28T01:06:22.679Z,1.15
2023-02-28T01:09:23.948Z,1.48
2023-02-28T01:12:25.218Z,1.33
2023-02-28T01:15:26.568Z,2.63
2023-02-28T01:18:27.973Z,1.95
2023-02-28T01:21:30.772Z,2.20
2023-02-28T01:24:34.329Z,2.22
2023-02-28T01:27:36.754Z,1.73
2023-02-28T01:30:38.336Z,1.55
2023-02-28T01:33:39.824Z,1.98
2023-02-28T01:36:41.152Z,2.13
2023-02-28T01:39:42.452Z,3.35
2023-02-28T01:42:43.740Z,2.88
2023-02-28T01:45:45.008Z,2.72
2023-02-28T01:48:52.479Z,2.28
2023-02-28T01:51:55.900Z,2.58
2023-02-28T01:54:58.843Z,2.10
2023-02-28T01:58:02.953Z,1.48
2023-02-28T02:01:05.092Z,1.20
2023-02-28T02:04:06.434Z,2.05
2023-02-28T02:07:07.889Z,3.75
2023-02-28T02:10:12.956Z,2.17
2023-02-28T02:13:25.826Z,2.10
2023-02-28T02:16:46.470Z,2.17
2023-02-28T02:20:06.354Z,2.45
2023-02-28T02:23:19.841Z,2.22
2023-02-28T02:26:23.928Z,1.67
2023-02-28T02:29:35.588Z,2.22
2023-02-28T02:32:57.706Z,2.15
2023-02-28T02:36:10.541Z,2.35
2023-02-28T02:39:18.802Z,2.33
2023-02-28T02:42:24.466Z,1.40
2023-02-28T02:45:28.264Z,2.22
2023-02-28T02:48:32.792Z,2.08
2023-02-28T02:51:34.784Z,1.50
2023-02-28T02:54:37.659Z,2.55
2023-02-28T02:57:50.275Z,2.03
2023-02-28T03:00:54.360Z,2.92
2023-02-28T03:03:56.926Z,2.17
2023-02-28T03:06:58.278Z,3.85
2023-02-28T03:09:59.582Z,2.10
2023-02-28T03:13:21.139Z,2.10
2023-02-28T03:16:22.424Z,2.50
2023-02-28T03:19:42.422Z,2.10
2023-02-28T03:22:53.273Z,2.38
2023-02-28T03:25:57.374Z,2.47
2023-02-28T03:29:01.815Z,2.20
2023-02-28T03:32:15.577Z,1.83
2023-02-28T03:35:22.866Z,2.13
2023-02-28T03:38:32.623Z,2.67
2023-02-28T03:41:36.741Z,2.70
2023-02-28T03:44:46.392Z,2.35
2023-02-28T03:47:52.071Z,2.20
2023-02-28T03:50:55.722Z,2.33
2023-02-28T03:53:59.487Z,1.95
2023-02-28T03:57:03.645Z,2.38
2023-02-28T04:00:17.851Z,2.05
2023-02-28T04:03:19.483Z,2.33
2023-02-28T04:06:22.255Z,1.70
2023-02-28T04:09:23.544Z,1.98
2023-02-28T04:12:24.870Z,2.00
2023-02-28T04:15:28.209Z,2.20
2023-02-28T04:18:29.447Z,2.38
2023-02-28T04:21:31.546Z,1.70
2023-02-28T04:24:33.072Z,2.03
2023-02-28T04:27:34.562Z,3.20
2023-02-28T04:30:35.967Z,1.77
2023-02-28T04:33:37.604Z,2.22
2023-02-28T04:36:38.944Z,1.90
2023-02-28T04:39:40.702Z,1.40
2023-02-28T04:42:42.021Z,2.25
2023-02-28T04:45:43.301Z,2.22
2023-02-28T04:48:45.319Z,2.15
2023-02-28T04:51:46.719Z,2.45
2023-02-28T04:54:48.008Z,2.60
2023-02-28T04:57:49.310Z,2.08
2023-02-28T05:00:53.765Z,1.83
2023-02-28T05:03:56.169Z,2.33
2023-02-28T05:06:57.475Z,2.33
2023-02-28T05:09:58.802Z,2.70
2023-02-28T05:13:00.065Z,2.50
2023-02-28T05:16:01.355Z,1.48
2023-02-28T05:19:02.853Z,2.50
2023-02-28T05:22:04.294Z,2.25
2023-02-28T05:25:06.211Z,2.15
2023-02-28T05:28:07.747Z,3.78
2023-02-28T05:31:11.766Z,2.33
2023-02-28T05:34:13.555Z,2.33
2023-02-28T05:37:15.940Z,2.72
2023-02-28T05:40:17.554Z,2.63
2023-02-28T05:43:18.860Z,2.50
2023-02-28T05:46:20.111Z,2.13
2023-02-28T05:49:21.445Z,2.22
2023-02-28T05:52:22.748Z,2.20
2023-02-28T05:55:24.024Z,2.30
2023-02-28T05:58:30.021Z,2.17
2023-02-28T06:01:32.997Z,2.35
2023-02-28T06:04:34.267Z,2.30
2023-02-28T06:07:35.562Z,2.25
2023-02-28T06:10:36.924Z,2.10
2023-02-28T06:13:38.297Z,2.53
2023-02-28T06:16:39.645Z,2.65
2023-02-28T06:19:42.248Z,1.85
2023-02-28T06:22:43.747Z,2.92
2023-02-28T06:25:48.578Z,2.33
2023-02-28T06:28:49.853Z,2.67
2023-02-28T06:31:51.226Z,2.30
2023-02-28T06:34:53.080Z,2.15
2023-02-28T06:37:54.364Z,4.07
2023-02-28T06:40:56.172Z,2.58
2023-02-28T06:43:57.901Z,2.35
2023-02-28T06:46:59.143Z,2.20
2023-02-28T06:50:02.344Z,2.13
2023-02-28T06:53:03.644Z,1.40
2023-02-28T06:56:07.273Z,2.53
2023-02-28T06:59:08.575Z,1.98
2023-02-28T07:02:09.887Z,2.28
2023-02-28T07:05:11.139Z,2.33
2023-02-28T07:08:12.440Z,2.28
2023-02-28T07:11:13.690Z,2.05
2023-02-28T07:14:15.033Z,2.47
2023-02-28T07:17:16.409Z,2.28
2023-02-28T07:20:17.917Z,1.90
2023-02-28T07:23:19.447Z,2.28
2023-02-28T07:26:21.088Z,1.67
2023-02-28T07:29:22.386Z,2.70
2023-02-28T07:32:24.288Z,1.98
2023-02-28T07:35:25.682Z,2.78
2023-02-28T07:38:26.982Z,2.30
2023-02-28T07:41:30.973Z,1.67
2023-02-28T07:44:32.699Z,3.20
2023-02-28T07:47:33.956Z,1.67
2023-02-28T07:50:35.577Z,1.25
2023-02-28T07:53:36.826Z,2.22
2023-02-28T07:56:38.276Z,1.73
2023-02-28T07:59:40.581Z,2.42
2023-02-28T08:02:41.926Z,2.22
2023-02-28T08:05:43.276Z,1.85
2023-02-28T08:08:45.379Z,2.70
2023-02-28T08:11:46.699Z,1.75
2023-02-28T08:14:47.985Z,1.63
2023-02-28T08:17:49.264Z,2.03
2023-02-28T08:20:50.581Z,1.77
2023-02-28T08:23:52.248Z,2.53
2023-02-28T08:26:53.573Z,2.35
2023-02-28T08:29:55.009Z,2.10
2023-02-28T08:32:56.464Z,2.08
2023-02-28T08:35:57.819Z,2.97
2023-02-28T08:39:00.529Z,2.20
2023-02-28T08:42:07.486Z,1.90
2023-02-28T08:45:09.504Z,1.60
2023-02-28T08:48:10.866Z,2.28
2023-02-28T08:51:22.388Z,1.88
2023-02-28T08:54:24.181Z,2.20
2023-02-28T08:57:27.206Z,1.58
2023-02-28T09:00:29.000Z,3.28
2023-02-28T09:03:30.347Z,2.92
2023-02-28T09:06:32.909Z,2.95
2023-02-28T09:09:34.363Z,4.10
2023-02-28T09:12:36.501Z,2.28
2023-02-28T09:15:38.531Z,2.95
2023-02-28T09:18:40.531Z,2.20
2023-02-28T09:21:41.814Z,2.08
2023-02-28T09:24:43.163Z,3.22
2023-02-28T09:27:44.444Z,1.95
2023-02-28T09:30:46.676Z,1.90
2023-02-28T09:33:48.955Z,2.05
2023-02-28T09:36:52.095Z,1.90
2023-02-28T09:39:53.542Z,1.95
2023-02-28T09:42:56.060Z,2.42
2023-02-28T09:46:03.526Z,2.10
2023-02-28T09:49:12.067Z,1.58
2023-02-28T09:52:22.333Z,1.80
2023-02-28T09:55:45.011Z,3.05
2023-02-28T09:58:50.358Z,3.10
2023-02-28T10:02:10.236Z,2.13
2023-02-28T10:05:16.488Z,2.15
2023-02-28T10:08:20.159Z,2.42
2023-02-28T10:11:23.807Z,2.47
2023-02-28T10:14:26.889Z,3.20
2023-02-28T10:17:32.589Z,2.05
2023-02-28T10:20:36.582Z,2.80
2023-02-28T10:23:38.244Z,2.60
2023-02-28T10:26:40.226Z,2.33
2023-02-28T10:29:43.498Z,2.55
2023-02-28T10:32:48.731Z,2.80
2023-02-28T10:35:50.237Z,2.92
2023-02-28T10:38:51.570Z,2.38
2023-02-28T10:41:53.907Z,2.63
2023-02-28T10:45:14.926Z,2.20
2023-02-28T10:48:16.197Z,2.65
2023-02-28T10:51:19.440Z,2.80
2023-02-28T10:54:23.640Z,2.33
2023-02-28T10:57:25.459Z,3.13
2023-02-28T11:00:32.219Z,2.30
2023-02-28T11:03:35.606Z,2.78
2023-02-28T11:06:36.915Z,2.20
2023-02-28T11:09:42.083Z,3.15
2023-02-28T11:12:52.209Z,3.10
2023-02-28T11:15:58.795Z,3.40
2023-02-28T11:19:00.831Z,3.55
2023-02-28T11:22:03.351Z,3.17
2023-02-28T11:25:11.100Z,2.80
2023-02-28T11:28:25.288Z,2.90
2023-02-28T11:31:28.532Z,3.80
2023-02-28T11:34:30.394Z,3.40
2023-02-28T11:37:32.266Z,3.80
2023-02-28T11:40:44.424Z,3.30
2023-02-28T11:44:05.222Z,3.25
2023-02-28T11:47:18.088Z,3.60
2023-02-28T11:50:41.085Z,3.53
2023-02-28T11:53:56.147Z,3.45
2023-02-28T11:57:20.475Z,3.42
2023-02-28T12:00:45.400Z,3.00
2023-02-28T12:03:57.351Z,3.35
2023-02-28T12:07:03.591Z,3.30
2023-02-28T12:10:17.055Z,3.45
2023-02-28T12:13:21.385Z,3.58
2023-02-28T12:16:25.555Z,4.07
2023-02-28T12:19:33.661Z,3.85
2023-02-28T12:22:40.862Z,3.50
2023-02-28T12:26:05.292Z,3.58
2023-02-28T12:29:25.201Z,3.45
2023-02-28T12:32:34.850Z,3.35
2023-02-28T12:35:46.531Z,3.63
2023-02-28T12:38:50.412Z,3.90
2023-02-28T12:41:54.507Z,4.38
2023-02-28T12:45:03.776Z,3.72
2023-02-28T12:48:06.844Z,3.50
2023-02-28T12:51:08.584Z,3.60
2023-02-28T12:54:25.535Z,3.85
2023-02-28T12:57:44.993Z,3.50
2023-02-28T13:00:57.356Z,4.30
2023-02-28T13:04:17.155Z,4.25
2023-02-28T13:07:36.997Z,4.13
2023-02-28T13:10:39.527Z,4.13
2023-02-28T13:13:45.605Z,3.67
2023-02-28T13:16:54.006Z,3.78
2023-02-28T13:19:55.355Z,4.25
2023-02-28T13:22:58.000Z,3.92
2023-02-28T13:26:00.144Z,3.63
2023-02-28T13:29:05.478Z,4.00
2023-02-28T13:32:09.978Z,4.00
2023-02-28T13:35:11.630Z,4.45
2023-02-28T13:38:46.198Z,3.40
2023-02-28T13:41:48.234Z,3.60
2023-02-28T13:45:04.742Z,3.45
2023-02-28T13:48:26.310Z,3.60
2023-02-28T13:51:42.717Z,3.65
2023-02-28T13:54:44.016Z,3.53
2023-02-28T13:58:00.630Z,3.70
2023-02-28T14:01:20.445Z,3.88
2023-02-28T14:04:32.615Z,3.70
2023-02-28T14:07:42.683Z,3.92
2023-02-28T14:10:43.997Z,3.50
2023-02-28T14:13:47.999Z,3.53
2023-02-28T14:16:51.110Z,3.92
2023-02-28T14:19:53.789Z,3.88
2023-02-28T14:23:03.966Z,4.22
2023-02-28T14:26:08.143Z,3.40
2023-02-28T14:29:32.817Z,3.80
2023-02-28T14:32:57.302Z,3.75
2023-02-28T14:36:01.653Z,3.10
2023-02-28T14:39:07.962Z,3.55
2023-02-28T14:42:27.868Z,3.22
2023-02-28T14:45:33.807Z,3.95
2023-02-28T14:48:35.853Z,3.47
2023-02-28T14:51:37.262Z,4.15
2023-02-28T14:54:39.320Z,3.83
2023-02-28T14:57:41.765Z,3.85
2023-02-28T15:00:49.706Z,3.85
2023-02-28T15:04:02.253Z,3.97
2023-02-28T15:07:14.992Z,4.20
2023-02-28T15:10:24.357Z,3.53
2023-02-28T15:13:30.802Z,3.75
2023-02-28T15:16:41.159Z,3.75
2023-02-28T15:22:44.247Z,3.70
2023-02-28T15:25:45.803Z,3.97
2023-02-28T15:28:47.411Z,4.03
2023-02-28T15:31:58.010Z,3.63
2023-02-28T15:35:00.917Z,3.80
2023-02-28T15:38:05.249Z,4.00
2023-02-28T15:41:09.129Z,4.20
2023-02-28T15:44:32.440Z,4.03
2023-02-28T15:47:33.991Z,3.72
2023-02-28T15:50:35.424Z,3.63
2023-02-28T15:53:38.798Z,5.07
2023-02-28T15:56:44.458Z,4.50
2023-02-28T15:59:50.577Z,4.88
2023-02-28T16:02:52.115Z,4.35
2023-02-28T16:06:12.216Z,3.40
2023-02-28T16:09:17.447Z,3.85
2023-02-28T16:12:18.948Z,3.92
2023-02-28T16:15:20.233Z,3.60
2023-02-28T16:18:21.568Z,3.05
2023-02-28T16:21:23.040Z,3.58
2023-02-28T16:24:24.595Z,4.18
2023-02-28T16:27:29.755Z,2.97
2023-02-28T16:30:33.877Z,3.15
2023-02-28T16:33:35.224Z,2.83
2023-02-28T16:36:36.496Z,3.60
2023-02-28T16:39:37.775Z,2.58
2023-02-28T16:42:39.573Z,2.65
2023-02-28T16:45:41.009Z,3.25
2023-02-28T16:48:42.381Z,4.07
2023-02-28T16:51:43.641Z,2.83
2023-02-28T16:54:44.977Z,3.08
2023-02-28T16:57:48.926Z,2.80
2023-02-28T17:00:50.257Z,3.13
2023-02-28T17:03:51.646Z,3.50
2023-02-28T17:06:53.367Z,4.15
2023-02-28T17:09:54.726Z,2.97
2023-02-28T17:13:06.028Z,4.53
2023-02-28T17:16:26.246Z,4.38
2023-02-28T17:19:29.193Z,3.85
2023-02-28T17:22:30.509Z,3.90
2023-02-28T17:25:32.290Z,3.65
2023-02-28T17:28:33.681Z,4.45
2023-02-28T17:31:40.407Z,4.03
2023-02-28T17:34:44.265Z,3.75
2023-02-28T17:37:47.784Z,5.20
2023-02-28T17:40:49.488Z,4.47
2023-02-28T17:43:51.518Z,5.10
2023-02-28T17:46:54.575Z,4.45
2023-02-28T17:49:55.897Z,3.13
2023-02-28T17:52:57.273Z,4.40
2023-02-28T17:55:58.577Z,4.47
2023-02-28T17:59:00.033Z,5.35
2023-02-28T18:02:01.768Z,5.28
2023-02-28T18:05:05.355Z,5.32
2023-02-28T18:08:06.689Z,4.25
2023-02-28T18:11:18.392Z,5.10
2023-02-28T18:17:21.083Z,6.90
2023-02-28T18:20:22.398Z,5.72
2023-02-28T18:23:23.716Z,5.63
2023-02-28T18:26:25.022Z,6.25
2023-02-28T18:29:27.625Z,5.78
2023-02-28T18:32:29.341Z,5.25
2023-02-28T18:35:37.361Z,3.83
2023-02-28T18:38:39.132Z,4.95
2023-02-28T18:41:40.490Z,5.45
2023-02-28T18:44:41.809Z,3.40
2023-02-28T18:47:43.126Z,4.03
2023-02-28T18:50:44.784Z,4.60
2023-02-28T18:53:46.179Z,3.92
2023-02-28T18:56:47.562Z,5.15
2023-02-28T18:59:48.869Z,3.90
2023-02-28T19:02:52.602Z,5.20
2023-02-28T19:05:57.272Z,3.60
2023-02-28T19:08:59.464Z,4.93
2023-02-28T19:12:00.783Z,3.00
2023-02-28T19:15:03.445Z,3.47
2023-02-28T19:18:04.765Z,3.85
2023-02-28T19:21:06.959Z,3.67
2023-02-28T19:24:08.320Z,5.32
2023-02-28T19:27:09.632Z,6.00
2023-02-28T19:30:14.219Z,5.50
2023-02-28T19:33:16.246Z,5.60
2023-02-28T19:36:19.422Z,6.28
2023-02-28T19:39:23.889Z,6.18
2023-02-28T19:42:28.588Z,6.25
2023-02-28T19:45:29.966Z,4.82
2023-02-28T19:48:31.324Z,5.18
2023-02-28T19:51:34.266Z,6.05
2023-02-28T19:54:35.592Z,6.80
2023-02-28T19:57:36.930Z,3.58
2023-02-28T20:00:41.225Z,4.53
2023-02-28T20:03:42.979Z,3.70
2023-02-28T20:06:44.291Z,4.97
2023-02-28T20:09:46.068Z,4.28
2023-02-28T20:12:47.301Z,4.80
2023-02-28T20:15:48.775Z,3.80
2023-02-28T20:18:53.484Z,4.95
2023-02-28T20:21:54.820Z,2.92
2023-02-28T20:24:56.123Z,4.25
2023-02-28T20:27:57.619Z,4.72
2023-02-28T20:31:00.605Z,3.85
2023-02-28T20:34:02.073Z,4.05
2023-02-28T20:37:03.508Z,2.75
2023-02-28T20:40:05.245Z,3.67
2023-02-28T20:43:06.788Z,5.60
2023-02-28T20:46:08.460Z,3.92
2023-02-28T20:49:10.553Z,4.28
2023-02-28T20:52:11.863Z,4.15
2023-02-28T20:55:13.847Z,5.18
2023-02-28T20:58:15.147Z,2.78
2023-02-28T21:01:18.174Z,3.78
2023-02-28T21:04:19.701Z,4.10
2023-02-28T21:07:21.117Z,4.22
2023-02-28T21:10:22.587Z,5.63
2023-02-28T21:13:24.055Z,4.40
2023-02-28T21:16:26.861Z,3.85
2023-02-28T21:19:28.203Z,4.57
2023-02-28T21:22:29.600Z,4.45
2023-02-28T21:25:32.616Z,3.58
2023-02-28T21:28:34.471Z,3.97
2023-02-28T21:31:36.201Z,4.22
2023-02-28T21:34:37.510Z,4.32
2023-02-28T21:37:38.963Z,4.75
2023-02-28T21:40:40.266Z,4.13
2023-02-28T21:43:42.446Z,4.18
2023-02-28T21:46:45.402Z,4.05
2023-02-28T21:49:46.742Z,3.45
2023-02-28T21:52:48.027Z,4.65
2023-02-28T21:55:49.381Z,3.47
2023-02-28T21:58:51.374Z,4.32
2023-02-28T22:01:54.930Z,3.75
2023-02-28T22:04:56.307Z,3.83
2023-02-28T22:07:57.621Z,3.05
2023-02-28T22:11:01.987Z,4.47
2023-02-28T22:14:03.298Z,3.60
2023-02-28T22:17:04.636Z,4.20
2023-02-28T22:20:06.283Z,4.03
2023-02-28T22:23:07.587Z,3.67
2023-02-28T22:26:10.192Z,3.38
2023-02-28T22:29:13.621Z,2.97
2023-02-28T22:32:15.231Z,4.15
2023-02-28T22:35:19.406Z,4.18
2023-02-28T22:38:20.757Z,4.63
2023-02-28T22:41:23.198Z,3.90
2023-02-28T22:44:24.540Z,3.72
2023-02-28T22:47:26.500Z,3.05
2023-02-28T22:50:27.800Z,3.72
2023-02-28T22:53:30.176Z,3.30
2023-02-28T22:56:32.127Z,3.92
2023-02-28T22:59:33.576Z,4.50
2023-02-28T23:02:34.974Z,3.47
2023-02-28T23:05:36.287Z,3.88
2023-02-28T23:08:37.585Z,4.15
2023-02-28T23:11:40.875Z,4.40
2023-02-28T23:14:42.690Z,4.05
2023-02-28T23:17:44.707Z,3.45
2023-02-28T23:20:45.955Z,5.18
2023-02-28T23:23:47.217Z,4.53
2023-02-28T23:26:50.069Z,4.00
2023-02-28T23:29:51.364Z,3.17
2023-02-28T23:32:52.663Z,4.00
2023-02-28T23:35:54.060Z,3.88
2023-02-28T23:38:55.700Z,3.28
2023-02-28T23:41:57.267Z,4.35
2023-02-28T23:44:58.553Z,3.30
2023-02-28T23:47:59.814Z,4.95
2023-02-28T23:51:09.175Z,4.32
2023-02-28T23:54:10.559Z,3.72
2023-02-28T23:57:11.867Z,3.78
